Terminal Aerodrome Forecast
Issued by NWS

Home | Current Version | Previous Version | Text Only | Print | Product List | Glossary On
Versions: 1 2 3 4 5 6 7 8 9 10 11 12 13 14 15 16 17 18 19 20 21 22 23 24 25 26 27 28 29 30 31 32 33 34 35
000
FTUS41 KRNK 021345 AAA
TAFBCB
TAF AMD
KBCB 021345Z 0214/0312 00000KT P6SM SCT007 OVC120
      TEMPO 0214/0215 BKN007
     FM021900 VRB03KT 5SM SHRA VCTS BKN035CB OVC060
     FM022200 08005KT 6SM -SHRA SCT005 OVC025
     FM030300 09004KT 4SM -SHRA BR BKN004 OVC015=

USA.gov is the U.S. government's official web portal to all federal, state and local government web resources and services.